Rees, Illinois
Current Conditions -  °F | °C
As of 9:15 PM on Saturday 20 Dec 2014 (Local Time) from KIJX Reporting Station
Overcast Overcast  
Wind Chill: 33°   Ceiling: 3000
Heat Index: 39°   Visibility: 7mi
Dew Point: 34°   Wind: 9mph
Humidity: 81%   Direction: 160°SSE
Pressure: 30.23"   Gusts: NA
Location:  39.5952°N, 90.058°W
Report Text: KIJX 210315Z AUTO 16008KT 7SM OVC030 04/01 A3023 RMK AO2 T00410011
Loading
Personal Weather Stations






























Interactive Weather Map New forecast layout! Learn more

10-Day Weather Forecast

Advertisements
Track Severe Weather on mobile